createdAt,value
2019-04-06T00:02:31.126Z,24.13
2019-04-06T00:04:59.387Z,24.27
2019-04-06T00:07:27.669Z,25.30
2019-04-06T00:09:55.951Z,26.40
2019-04-06T00:12:24.194Z,24.27
2019-04-06T00:14:52.482Z,23.30
2019-04-06T00:17:20.758Z,25.47
2019-04-06T00:19:49.064Z,23.70
2019-04-06T00:22:17.327Z,26.10
2019-04-06T00:24:45.621Z,24.00
2019-04-06T00:27:13.891Z,24.57
2019-04-06T00:29:42.168Z,24.17
2019-04-06T00:32:14.898Z,22.30
2019-04-06T00:34:43.217Z,24.23
2019-04-06T00:37:11.513Z,24.20
2019-04-06T00:39:39.774Z,24.37
2019-04-06T00:42:08.043Z,24.50
2019-04-06T00:44:36.317Z,24.63
2019-04-06T00:47:04.661Z,24.70
2019-04-06T00:49:32.945Z,25.37
2019-04-06T00:52:01.220Z,24.70
2019-04-06T00:54:29.573Z,25.07
2019-04-06T00:56:57.892Z,24.67
2019-04-06T00:59:26.240Z,24.67
2019-04-06T01:01:55.395Z,25.57
2019-04-06T01:04:23.658Z,25.50
2019-04-06T01:06:51.981Z,25.27
2019-04-06T01:09:21.744Z,26.67
2019-04-06T01:11:50.030Z,24.00
2019-04-06T01:14:18.576Z,26.00
2019-04-06T01:16:46.845Z,25.60
2019-04-06T01:19:15.124Z,25.83
2019-04-06T01:21:43.389Z,25.43
2019-04-06T01:24:11.658Z,24.73
2019-04-06T01:26:39.932Z,26.33
2019-04-06T01:29:08.201Z,25.50
2019-04-06T01:31:36.467Z,25.23
2019-04-06T01:34:04.826Z,26.73
2019-04-06T01:36:33.101Z,25.00
2019-04-06T01:39:01.359Z,25.40
2019-04-06T01:41:29.643Z,25.43
2019-04-06T01:43:57.925Z,24.87
2019-04-06T01:46:26.205Z,25.90
2019-04-06T01:48:54.492Z,25.87
2019-04-06T01:51:22.778Z,24.20
2019-04-06T01:53:51.054Z,24.73
2019-04-06T01:56:19.349Z,25.97
2019-04-06T01:58:47.634Z,24.37
2019-04-06T02:01:23.344Z,26.33
2019-04-06T02:03:51.908Z,25.10
2019-04-06T02:06:20.176Z,25.97
2019-04-06T02:08:48.447Z,25.60
2019-04-06T02:11:16.812Z,24.77
2019-04-06T02:13:45.066Z,25.10
2019-04-06T02:16:13.350Z,25.10
2019-04-06T02:18:41.634Z,25.77
2019-04-06T02:21:09.920Z,24.90
2019-04-06T02:23:38.201Z,24.57
2019-04-06T02:26:06.455Z,23.37
2019-04-06T02:28:34.738Z,24.27
2019-04-06T02:31:10.106Z,24.70
2019-04-06T02:33:45.975Z,24.47
2019-04-06T02:36:18.607Z,23.80
2019-04-06T02:38:48.514Z,24.13
2019-04-06T02:41:20.817Z,25.83
2019-04-06T02:43:49.206Z,23.97
2019-04-06T02:46:17.562Z,23.47
2019-04-06T02:48:45.886Z,24.73
2019-04-06T02:51:14.152Z,25.63
2019-04-06T02:53:42.873Z,25.37
2019-04-06T02:56:11.172Z,24.40
2019-04-06T02:58:39.586Z,24.23
2019-04-06T03:01:07.828Z,25.30
2019-04-06T03:03:36.112Z,24.87
2019-04-06T03:06:04.785Z,25.30
2019-04-06T03:08:33.014Z,27.20
2019-04-06T03:11:01.279Z,28.97
2019-04-06T03:13:29.571Z,29.10
2019-04-06T03:15:57.900Z,30.50
2019-04-06T03:18:26.188Z,30.53
2019-04-06T03:20:54.450Z,27.93
2019-04-06T03:23:24.961Z,30.50
2019-04-06T03:25:52.906Z,28.40
2019-04-06T03:28:21.199Z,28.63
2019-04-06T03:30:49.465Z,27.30
2019-04-06T03:33:17.859Z,27.80
2019-04-06T03:35:49.239Z,25.33
2019-04-06T03:38:16.083Z,24.70
2019-04-06T03:40:44.441Z,25.03
2019-04-06T03:43:12.747Z,24.17
2019-04-06T03:45:40.996Z,22.80
2019-04-06T03:48:09.362Z,25.17
2019-04-06T03:50:37.617Z,24.30
2019-04-06T03:53:05.925Z,22.87
2019-04-06T03:55:34.237Z,24.60
2019-04-06T03:58:02.521Z,24.10
2019-04-06T04:00:30.838Z,23.83
2019-04-06T04:02:59.177Z,23.67
2019-04-06T04:05:27.471Z,23.77
2019-04-06T04:07:55.751Z,25.00
2019-04-06T04:10:35.663Z,25.57
2019-04-06T04:13:04.261Z,22.77
2019-04-06T04:15:32.576Z,23.20
2019-04-06T04:18:00.966Z,23.97
2019-04-06T04:20:29.291Z,24.30
2019-04-06T04:22:57.650Z,24.10
2019-04-06T04:25:25.925Z,22.77
2019-04-06T04:27:54.216Z,24.07
2019-04-06T04:30:32.524Z,22.80
2019-04-06T04:32:52.581Z,21.67
2019-04-06T04:35:21.008Z,24.17
2019-04-06T04:37:49.261Z,24.77
2019-04-06T04:40:17.793Z,23.50
2019-04-06T04:42:46.127Z,21.17
2019-04-06T04:45:14.649Z,22.87
2019-04-06T04:47:43.157Z,23.27
2019-04-06T04:50:11.569Z,23.77
2019-04-06T04:52:39.833Z,22.00
2019-04-06T04:55:08.965Z,24.73
2019-04-06T04:57:40.868Z,23.30
2019-04-06T05:00:08.013Z,23.70
2019-04-06T05:02:36.347Z,22.50
2019-04-06T05:05:06.270Z,22.27
2019-04-06T05:07:34.532Z,21.57
2019-04-06T05:10:03.273Z,23.23
2019-04-06T05:12:31.560Z,23.27
2019-04-06T05:15:08.627Z,23.53
2019-04-06T05:17:37.002Z,24.00
2019-04-06T05:20:07.687Z,25.00
2019-04-06T05:22:35.995Z,24.83
2019-04-06T05:25:06.058Z,25.23
2019-04-06T05:27:34.404Z,23.67
2019-04-06T05:30:03.039Z,24.37
2019-04-06T05:32:31.303Z,24.50
2019-04-06T05:34:59.582Z,23.40
2019-04-06T05:37:27.839Z,23.60
2019-04-06T05:39:56.098Z,24.63
2019-04-06T05:42:24.446Z,23.00
2019-04-06T05:44:52.787Z,23.40
2019-04-06T05:47:21.001Z,23.33
2019-04-06T05:49:49.272Z,22.40
2019-04-06T05:52:17.527Z,25.13
2019-04-06T05:54:45.802Z,23.33
2019-04-06T05:57:14.082Z,24.53
2019-04-06T05:59:42.370Z,22.57
2019-04-06T06:02:10.752Z,23.20
2019-04-06T06:04:40.577Z,24.87
2019-04-06T06:07:09.065Z,24.97
2019-04-06T06:09:37.329Z,23.50
2019-04-06T06:12:05.766Z,23.97
2019-04-06T06:14:34.063Z,24.17
2019-04-06T06:17:02.322Z,23.03
2019-04-06T06:19:30.591Z,23.43
2019-04-06T06:21:58.862Z,22.30
2019-04-06T06:24:27.133Z,24.33
2019-04-06T06:26:55.637Z,23.40
2019-04-06T06:29:24.072Z,24.20
2019-04-06T06:31:52.321Z,24.37
2019-04-06T06:34:20.605Z,24.40
2019-04-06T06:36:48.862Z,25.27
2019-04-06T06:39:17.132Z,23.10
2019-04-06T06:41:45.433Z,24.97
2019-04-06T06:44:13.678Z,23.47
2019-04-06T06:46:41.939Z,24.67
2019-04-06T06:49:10.211Z,22.83
2019-04-06T06:51:38.489Z,22.00
2019-04-06T06:54:07.527Z,23.30
2019-04-06T06:56:35.889Z,24.20
2019-04-06T06:59:04.209Z,24.70
2019-04-06T07:01:32.488Z,23.53
2019-04-06T07:04:00.755Z,23.13
2019-04-06T07:06:29.104Z,24.53
2019-04-06T07:08:57.407Z,22.63
2019-04-06T07:11:25.684Z,24.37
2019-04-06T07:13:53.962Z,23.07
2019-04-06T07:16:22.227Z,23.77
2019-04-06T07:18:50.514Z,24.00
2019-04-06T07:21:18.910Z,22.50
2019-04-06T07:23:47.374Z,22.87
2019-04-06T07:26:15.836Z,23.10
2019-04-06T07:28:44.038Z,22.83
2019-04-06T07:31:12.331Z,21.87
2019-04-06T07:33:40.620Z,21.17
2019-04-06T07:36:09.127Z,23.07
2019-04-06T07:38:38.288Z,23.33
2019-04-06T07:41:06.723Z,23.17
2019-04-06T07:43:35.008Z,21.30
2019-04-06T07:46:03.265Z,22.30
2019-04-06T07:48:31.566Z,21.60
2019-04-06T07:50:59.867Z,19.93
2019-04-06T07:53:28.221Z,22.33
2019-04-06T07:55:56.505Z,20.20
2019-04-06T07:58:24.831Z,22.03
2019-04-06T08:00:53.123Z,22.43
2019-04-06T08:03:21.599Z,21.93
2019-04-06T08:05:50.056Z,22.03
2019-04-06T08:08:18.341Z,20.33
2019-04-06T08:10:46.613Z,21.17
2019-04-06T08:13:14.888Z,23.20
2019-04-06T08:15:43.260Z,19.93
2019-04-06T08:18:11.537Z,19.97
2019-04-06T08:20:39.814Z,21.40
2019-04-06T08:23:08.119Z,20.53
2019-04-06T08:25:36.464Z,21.93
2019-04-06T08:28:04.963Z,20.90
2019-04-06T08:30:44.198Z,22.40
2019-04-06T08:33:03.419Z,21.90
2019-04-06T08:35:31.696Z,20.33
2019-04-06T08:37:59.971Z,20.70
2019-04-06T08:40:28.238Z,21.10
2019-04-06T08:42:56.615Z,21.43
2019-04-06T08:45:25.180Z,20.80
2019-04-06T08:47:53.584Z,20.57
2019-04-06T08:50:21.856Z,20.37
2019-04-06T08:52:50.148Z,21.93
2019-04-06T08:55:18.449Z,20.77
2019-04-06T08:57:46.701Z,22.87
2019-04-06T09:00:16.541Z,21.27
2019-04-06T09:02:44.811Z,22.70
2019-04-06T09:05:13.157Z,20.97
2019-04-06T09:07:41.431Z,20.10
2019-04-06T09:10:10.571Z,22.80
2019-04-06T09:12:39.367Z,19.70
2019-04-06T09:15:09.198Z,21.17
2019-04-06T09:17:37.548Z,21.57
2019-04-06T09:20:07.253Z,20.37
2019-04-06T09:22:35.641Z,22.20
2019-04-06T09:25:05.351Z,20.00
2019-04-06T09:27:33.575Z,21.67
2019-04-06T09:30:01.861Z,21.50
2019-04-06T09:32:30.128Z,20.70
2019-04-06T09:34:58.391Z,20.97
2019-04-06T09:37:27.638Z,21.20
2019-04-06T09:39:55.999Z,22.00
2019-04-06T09:42:24.194Z,19.80
2019-04-06T09:44:59.603Z,22.90
2019-04-06T09:47:29.531Z,21.57
2019-04-06T09:50:02.278Z,23.30
2019-04-06T09:52:32.431Z,22.40
2019-04-06T09:55:02.364Z,21.87
2019-04-06T09:57:38.179Z,22.80
2019-04-06T10:00:09.734Z,22.60
2019-04-06T10:02:39.647Z,23.67
2019-04-06T10:05:31.021Z,22.30
2019-04-06T10:08:17.731Z,23.60
2019-04-06T10:10:59.840Z,22.07
2019-04-06T10:13:46.291Z,23.17
2019-04-06T10:16:16.163Z,24.60
2019-04-06T10:18:51.790Z,24.50
2019-04-06T10:21:21.861Z,23.47
2019-04-06T10:23:57.770Z,25.27
2019-04-06T10:26:39.542Z,27.20
2019-04-06T10:29:12.149Z,24.93
2019-04-06T10:31:42.072Z,24.77
2019-04-06T10:34:29.765Z,25.97
2019-04-06T10:37:15.647Z,25.80
2019-04-06T10:39:51.503Z,27.10
2019-04-06T10:42:30.760Z,27.73
2019-04-06T10:45:03.372Z,25.53
2019-04-06T10:47:33.278Z,26.43
2019-04-06T10:50:03.210Z,25.20
2019-04-06T10:52:38.819Z,25.50
2019-04-06T10:55:14.242Z,27.27
2019-04-06T10:57:52.758Z,24.13
2019-04-06T11:00:28.405Z,25.43
2019-04-06T11:03:07.083Z,25.63
2019-04-06T11:05:45.657Z,26.63
2019-04-06T11:08:21.296Z,27.03
2019-04-06T11:11:07.324Z,24.87
2019-04-06T11:13:40.146Z,24.83
2019-04-06T11:16:26.229Z,25.23
2019-04-06T11:19:01.909Z,25.70
2019-04-06T11:21:31.893Z,25.60
2019-04-06T11:24:18.074Z,26.57
2019-04-06T11:26:48.159Z,25.37
2019-04-06T11:29:34.030Z,25.60
2019-04-06T11:32:20.198Z,25.30
2019-04-06T11:35:06.022Z,26.97
2019-04-06T11:37:44.678Z,25.20
2019-04-06T11:40:30.729Z,25.60
2019-04-06T11:43:06.490Z,25.30
2019-04-06T11:45:53.056Z,25.57
2019-04-06T11:48:41.036Z,25.13
2019-04-06T11:51:29.130Z,25.63
2019-04-06T11:54:07.901Z,25.07
2019-04-06T11:56:40.718Z,24.90
2019-04-06T11:59:19.557Z,24.60
2019-04-06T12:01:55.454Z,23.27
2019-04-06T12:04:25.391Z,23.03
2019-04-06T12:06:55.388Z,23.10
2019-04-06T12:09:30.711Z,22.23
2019-04-06T12:12:09.130Z,22.40
2019-04-06T12:14:54.117Z,23.40
2019-04-06T12:17:29.751Z,21.90
2019-04-06T12:20:17.220Z,23.20
2019-04-06T12:22:50.053Z,20.33
2019-04-06T12:25:19.109Z,20.97
2019-04-06T12:27:58.195Z,20.67
2019-04-06T12:30:38.668Z,19.80
2019-04-06T12:33:08.918Z,21.07
2019-04-06T12:35:44.547Z,22.93
2019-04-06T12:38:20.265Z,20.80
2019-04-06T12:40:56.307Z,21.30
2019-04-06T12:43:42.544Z,24.07
2019-04-06T12:46:18.356Z,22.03
2019-04-06T12:48:59.989Z,22.77
2019-04-06T12:51:38.761Z,21.10
2019-04-06T12:54:25.112Z,23.07
2019-04-06T12:57:06.978Z,21.47
2019-04-06T12:59:45.631Z,19.80
2019-04-06T13:02:21.260Z,18.93
2019-04-06T13:04:51.219Z,17.80
2019-04-06T13:07:23.842Z,18.17
2019-04-06T13:09:56.743Z,16.80
2019-04-06T13:12:32.660Z,16.63
2019-04-06T13:15:05.330Z,15.73
2019-04-06T13:17:50.294Z,14.67
2019-04-06T13:20:20.181Z,16.73
2019-04-06T13:23:06.164Z,15.73
2019-04-06T13:25:54.151Z,17.03
2019-04-06T13:28:30.238Z,19.00
2019-04-06T13:31:02.655Z,17.67
2019-04-06T13:33:34.576Z,17.20
2019-04-06T13:36:22.689Z,17.13
2019-04-06T13:39:09.065Z,17.87
2019-04-06T13:41:39.026Z,17.63
2019-04-06T13:44:20.885Z,18.00
2019-04-06T13:46:50.806Z,18.53
2019-04-06T13:49:36.841Z,18.67
2019-04-06T13:52:06.745Z,18.77
2019-04-06T13:54:52.943Z,17.27
2019-04-06T13:57:22.867Z,17.70
2019-04-06T13:59:52.780Z,17.13
2019-04-06T14:02:22.717Z,16.83
2019-04-06T14:05:08.997Z,17.90
2019-04-06T14:07:50.905Z,18.50
2019-04-06T14:10:37.859Z,17.03
2019-04-06T14:13:10.401Z,17.10
2019-04-06T14:15:55.878Z,18.67
2019-04-06T14:18:42.255Z,18.80
2019-04-06T14:21:21.101Z,18.47
2019-04-06T14:23:51.042Z,17.57
2019-04-06T14:26:37.005Z,17.27
2019-04-06T14:29:24.879Z,18.30
2019-04-06T14:31:55.102Z,18.27
2019-04-06T14:34:33.818Z,17.80
2019-04-06T14:37:09.484Z,19.07
2019-04-06T14:39:45.271Z,17.93
2019-04-06T14:42:17.888Z,17.23
2019-04-06T14:44:50.532Z,18.33
2019-04-06T14:47:29.759Z,17.67
2019-04-06T14:50:18.730Z,17.37
2019-04-06T14:52:48.659Z,19.07
2019-04-06T14:55:30.697Z,18.20
2019-04-06T14:58:03.707Z,18.37
2019-04-06T15:00:50.048Z,18.50
2019-04-06T15:03:20.616Z,18.33
2019-04-06T15:06:06.455Z,18.23
2019-04-06T15:08:56.044Z,18.37
2019-04-06T15:11:42.567Z,17.93
2019-04-06T15:14:27.521Z,17.20
2019-04-06T15:17:15.360Z,16.83
2019-04-06T15:19:50.789Z,18.10
2019-04-06T15:22:26.352Z,15.93
2019-04-06T15:24:56.715Z,17.80
2019-04-06T15:27:32.332Z,17.17
2019-04-06T15:30:05.159Z,18.17
2019-04-06T15:32:35.094Z,16.30
2019-04-06T15:35:21.863Z,16.87
2019-04-06T15:38:08.093Z,16.93
2019-04-06T15:40:46.977Z,28.03
2019-04-06T15:43:19.821Z,16.00
2019-04-06T15:45:58.796Z,16.17
2019-04-06T15:48:44.839Z,15.20
2019-04-06T15:51:17.967Z,15.60
2019-04-06T15:53:48.008Z,16.40
2019-04-06T15:59:23.572Z,15.83
2019-04-06T16:02:03.246Z,15.10
2019-04-06T16:04:33.973Z,17.17
2019-04-06T16:07:31.452Z,16.30
2019-04-06T16:10:11.599Z,17.13
2019-04-06T16:12:56.894Z,15.70
2019-04-06T16:15:27.106Z,17.30
2019-04-06T16:18:09.070Z,15.10
2019-04-06T16:20:47.514Z,16.10
2019-04-06T16:23:20.464Z,14.60
2019-04-06T16:25:50.894Z,14.67
2019-04-06T16:28:30.246Z,14.30
2019-04-06T16:31:09.007Z,15.53
2019-04-06T16:33:55.113Z,15.00
2019-04-06T16:36:41.586Z,14.70
2019-04-06T16:39:17.477Z,15.17
2019-04-06T16:42:03.537Z,14.60
2019-04-06T16:44:33.664Z,14.53
2019-04-06T16:47:03.565Z,15.27
2019-04-06T16:49:36.125Z,15.33
2019-04-06T16:52:15.216Z,15.37
2019-04-06T16:54:50.861Z,15.33
2019-04-06T16:57:21.662Z,15.50
2019-04-06T17:00:01.291Z,15.40
2019-04-06T17:02:32.216Z,14.40
2019-04-06T17:05:11.427Z,14.93
2019-04-06T17:07:47.957Z,15.63
2019-04-06T17:10:33.346Z,16.27
2019-04-06T17:13:19.938Z,14.60
2019-04-06T17:15:50.215Z,14.33
2019-04-06T17:18:22.898Z,14.53
2019-04-06T17:20:55.773Z,15.27
2019-04-06T17:23:31.485Z,16.07
2019-04-06T17:26:13.302Z,15.33
2019-04-06T17:28:49.114Z,15.17
2019-04-06T17:31:34.847Z,15.40
2019-04-06T17:34:10.860Z,14.80
2019-04-06T17:36:56.001Z,15.40
2019-04-06T17:39:37.942Z,15.17
2019-04-06T17:42:10.270Z,15.03
2019-04-06T17:44:56.625Z,16.00
2019-04-06T17:47:30.126Z,15.97
2019-04-06T17:50:12.170Z,16.07
2019-04-06T17:52:44.982Z,16.20
2019-04-06T17:55:31.198Z,16.40
2019-04-06T17:58:18.890Z,15.50
2019-04-06T18:00:48.801Z,14.80
2019-04-06T18:03:18.696Z,17.50
2019-04-06T18:05:57.243Z,17.67
2019-04-06T18:08:32.916Z,16.57
2019-04-06T18:11:08.594Z,16.20
2019-04-06T18:13:52.574Z,14.90
2019-04-06T18:16:23.298Z,15.03
2019-04-06T18:18:52.123Z,15.47
2019-04-06T18:21:20.552Z,15.97
2019-04-06T18:23:48.864Z,16.30
2019-04-06T18:26:19.069Z,16.27
2019-04-06T18:28:47.140Z,16.20
2019-04-06T18:31:25.942Z,16.77
2019-04-06T18:33:54.117Z,17.03
2019-04-06T18:36:24.399Z,17.83
2019-04-06T18:39:00.797Z,16.80
2019-04-06T18:41:29.300Z,18.50
2019-04-06T18:43:57.939Z,19.83
2019-04-06T18:46:26.311Z,20.27
2019-04-06T18:48:55.106Z,19.90
2019-04-06T18:51:23.570Z,22.93
2019-04-06T18:53:51.814Z,23.70
2019-04-06T18:56:20.114Z,22.80
2019-04-06T18:58:48.433Z,21.23
2019-04-06T19:01:16.723Z,24.00
2019-04-06T19:03:45.191Z,25.20
2019-04-06T19:06:13.601Z,23.17
2019-04-06T19:08:42.071Z,27.43
2019-04-06T19:11:10.265Z,24.90
2019-04-06T19:13:39.061Z,24.73
2019-04-06T19:16:07.526Z,23.70
2019-04-06T19:18:36.254Z,23.90
2019-04-06T19:21:04.759Z,23.80
2019-04-06T19:23:33.394Z,31.30
2019-04-06T19:26:01.951Z,41.37
2019-04-06T19:28:30.261Z,32.37
2019-04-06T19:30:58.625Z,31.07
2019-04-06T19:33:27.290Z,30.90
2019-04-06T19:35:55.757Z,33.30
2019-04-06T19:38:24.585Z,27.40
2019-04-06T19:40:53.028Z,26.60
2019-04-06T19:43:21.248Z,24.10
2019-04-06T19:45:49.996Z,22.17
2019-04-06T19:48:18.312Z,21.80
2019-04-06T19:50:47.522Z,21.47
2019-04-06T19:53:15.948Z,22.30
2019-04-06T19:55:44.614Z,19.70
2019-04-06T19:58:12.848Z,16.27
2019-04-06T20:00:41.304Z,16.77
2019-04-06T20:03:10.057Z,16.03
2019-04-06T20:05:39.003Z,17.40
2019-04-06T20:08:07.316Z,15.10
2019-04-06T20:10:35.601Z,15.10
2019-04-06T20:13:03.954Z,16.30
2019-04-06T20:15:32.232Z,17.77
2019-04-06T20:18:00.508Z,16.47
2019-04-06T20:20:28.849Z,16.30
2019-04-06T20:22:57.136Z,15.73
2019-04-06T20:25:25.418Z,15.43
2019-04-06T20:27:53.682Z,18.00
2019-04-06T20:30:22.042Z,15.77
2019-04-06T20:32:50.324Z,17.50
2019-04-06T20:35:18.608Z,17.63
2019-04-06T20:37:46.902Z,17.27
2019-04-06T20:40:15.456Z,22.30
2019-04-06T20:42:43.685Z,22.60
2019-04-06T20:45:12.987Z,25.43
2019-04-06T20:47:41.432Z,31.17
2019-04-06T20:50:10.254Z,23.53
2019-04-06T20:52:38.614Z,20.97
2019-04-06T20:55:08.028Z,19.87
2019-04-06T20:57:36.396Z,20.70
2019-04-06T21:00:07.207Z,20.90
2019-04-06T21:02:35.476Z,19.67
2019-04-06T21:05:05.765Z,19.77
2019-04-06T21:07:34.113Z,20.17
2019-04-06T21:10:03.102Z,23.00
2019-04-06T21:12:32.022Z,22.13
2019-04-06T21:15:01.045Z,19.40
2019-04-06T21:17:29.455Z,19.67
2019-04-06T21:19:58.233Z,20.60
2019-04-06T21:22:26.597Z,20.00
2019-04-06T21:24:56.445Z,19.50
2019-04-06T21:27:24.919Z,19.73
2019-04-06T21:29:57.415Z,19.27
2019-04-06T21:32:26.117Z,19.87
2019-04-06T21:34:58.695Z,17.40
2019-04-06T21:37:44.063Z,19.20
2019-04-06T21:40:12.620Z,18.30
2019-04-06T21:42:40.988Z,18.67
2019-04-06T21:45:09.487Z,17.53
2019-04-06T21:47:45.134Z,18.40
2019-04-06T21:50:17.282Z,17.80
2019-04-06T21:52:45.539Z,18.80
2019-04-06T21:55:15.258Z,17.90
2019-04-06T21:57:43.616Z,18.43
2019-04-06T22:00:15.594Z,18.83
2019-04-06T22:02:47.079Z,17.90
2019-04-06T22:05:15.970Z,16.80
2019-04-06T22:07:49.626Z,18.43
2019-04-06T22:10:15.626Z,17.30
2019-04-06T22:12:44.211Z,19.27
2019-04-06T22:15:14.795Z,20.57
2019-04-06T22:17:43.112Z,18.10
2019-04-06T22:20:12.317Z,17.40
2019-04-06T22:22:41.590Z,17.80
2019-04-06T22:25:09.950Z,19.20
2019-04-06T22:27:38.306Z,20.00
2019-04-06T22:30:10.318Z,18.43
2019-04-06T22:32:39.210Z,18.30
2019-04-06T22:35:07.850Z,18.90
2019-04-06T22:37:38.024Z,18.23
2019-04-06T22:40:07.669Z,18.23
2019-04-06T22:42:37.366Z,19.10
2019-04-06T22:45:09.317Z,18.63
2019-04-06T22:47:38.070Z,19.17
2019-04-06T22:50:07.036Z,19.40
2019-04-06T22:52:35.382Z,18.70
2019-04-06T22:55:07.465Z,18.87
2019-04-06T22:57:37.333Z,18.00
2019-04-06T23:00:08.874Z,18.30
2019-04-06T23:02:38.784Z,19.63
2019-04-06T23:05:18.955Z,20.57
2019-04-06T23:07:47.209Z,20.00
2019-04-06T23:10:17.133Z,20.50
2019-04-06T23:12:45.395Z,19.20
2019-04-06T23:15:17.753Z,20.27
2019-04-06T23:17:46.110Z,18.97
2019-04-06T23:20:17.452Z,18.33
2019-04-06T23:22:46.183Z,18.90
2019-04-06T23:25:16.251Z,18.23
2019-04-06T23:27:44.527Z,18.30
2019-04-06T23:30:13.170Z,18.50
2019-04-06T23:32:42.274Z,18.53
2019-04-06T23:35:12.894Z,18.30
2019-04-06T23:37:45.886Z,18.67
2019-04-06T23:40:14.548Z,19.30
2019-04-06T23:42:43.491Z,18.83
2019-04-06T23:45:13.915Z,19.47
2019-04-06T23:47:44.557Z,17.50
2019-04-06T23:50:33.839Z,17.37
2019-04-06T23:53:13.825Z,17.33
2019-04-06T23:55:50.735Z,18.40
2019-04-06T23:58:17.979Z,17.70
